sensor_id;sensor_type;location;lat;lon;timestamp;temperature;humidity
1049;DHT22;513;51.444;7.196;2023-05-10T00:01:57;13.50;99.90
1049;DHT22;513;51.444;7.196;2023-05-10T00:04:24;13.50;99.90
1049;DHT22;513;51.444;7.196;2023-05-10T00:06:52;13.40;99.90
1049;DHT22;513;51.444;7.196;2023-05-10T00:09:20;13.40;99.90
1049;DHT22;513;51.444;7.196;2023-05-10T00:11:46;13.40;99.90
1049;DHT22;513;51.444;7.196;2023-05-10T00:14:14;13.40;99.90
1049;DHT22;513;51.444;7.196;2023-05-10T00:16:41;13.50;99.90
1049;DHT22;513;51.444;7.196;2023-05-10T00:19:07;13.50;99.90
1049;DHT22;513;51.444;7.196;2023-05-10T00:21:34;13.50;99.90
1049;DHT22;513;51.444;7.196;2023-05-10T00:24:01;13.50;99.90
1049;DHT22;513;51.444;7.196;2023-05-10T00:26:27;13.50;99.90
1049;DHT22;513;51.444;7.196;2023-05-10T00:28:54;13.40;99.90
1049;DHT22;513;51.444;7.196;2023-05-10T00:31:22;13.50;99.90
1049;DHT22;513;51.444;7.196;2023-05-10T00:33:49;13.50;99.90
1049;DHT22;513;51.444;7.196;2023-05-10T00:36:15;13.50;99.90
1049;DHT22;513;51.444;7.196;2023-05-10T00:38:42;13.40;99.90
1049;DHT22;513;51.444;7.196;2023-05-10T00:41:09;13.50;99.90
1049;DHT22;513;51.444;7.196;2023-05-10T00:43:35;13.50;99.90
1049;DHT22;513;51.444;7.196;2023-05-10T00:46:02;13.40;99.90
1049;DHT22;513;51.444;7.196;2023-05-10T00:48:30;13.40;99.90
1049;DHT22;513;51.444;7.196;2023-05-10T00:50:57;13.40;99.90
1049;DHT22;513;51.444;7.196;2023-05-10T00:53:24;13.40;99.90
1049;DHT22;513;51.444;7.196;2023-05-10T00:55:51;13.50;99.90
1049;DHT22;513;51.444;7.196;2023-05-10T00:58:18;13.50;99.90
1049;DHT22;513;51.444;7.196;2023-05-10T01:00:46;13.50;99.90
1049;DHT22;513;51.444;7.196;2023-05-10T01:03:13;13.50;99.90
1049;DHT22;513;51.444;7.196;2023-05-10T01:05:41;13.50;99.90
1049;DHT22;513;51.444;7.196;2023-05-10T01:08:08;13.50;99.90
1049;DHT22;513;51.444;7.196;2023-05-10T01:10:35;13.50;99.90
1049;DHT22;513;51.444;7.196;2023-05-10T01:13:02;13.50;99.90
1049;DHT22;513;51.444;7.196;2023-05-10T01:15:30;13.40;99.90
1049;DHT22;513;51.444;7.196;2023-05-10T01:17:57;13.40;99.90
1049;DHT22;513;51.444;7.196;2023-05-10T01:20:24;13.30;99.90
1049;DHT22;513;51.444;7.196;2023-05-10T01:23:10;13.40;99.90
1049;DHT22;513;51.444;7.196;2023-05-10T01:26:04;13.20;99.90
1049;DHT22;513;51.444;7.196;2023-05-10T01:28:57;13.20;99.90
1049;DHT22;513;51.444;7.196;2023-05-10T01:31:38;13.10;99.90
1049;DHT22;513;51.444;7.196;2023-05-10T01:34:14;13.20;99.90
1049;DHT22;513;51.444;7.196;2023-05-10T01:36:45;13.10;99.90
1049;DHT22;513;51.444;7.196;2023-05-10T01:39:20;13.10;99.90
1049;DHT22;513;51.444;7.196;2023-05-10T01:41:51;12.90;99.90
1049;DHT22;513;51.444;7.196;2023-05-10T01:44:26;12.90;99.90
1049;DHT22;513;51.444;7.196;2023-05-10T01:47:01;12.90;99.90
1049;DHT22;513;51.444;7.196;2023-05-10T01:49:33;12.70;99.90
1049;DHT22;513;51.444;7.196;2023-05-10T01:52:08;12.80;99.90
1049;DHT22;513;51.444;7.196;2023-05-10T01:54:35;12.90;99.90
1049;DHT22;513;51.444;7.196;2023-05-10T01:57:06;12.90;99.90
1049;DHT22;513;51.444;7.196;2023-05-10T01:59:35;12.80;99.90
1049;DHT22;513;51.444;7.196;2023-05-10T02:02:06;12.70;99.90
1049;DHT22;513;51.444;7.196;2023-05-10T02:04:35;12.70;99.90
1049;DHT22;513;51.444;7.196;2023-05-10T02:07:04;12.70;99.90
1049;DHT22;513;51.444;7.196;2023-05-10T02:09:32;12.50;99.90
1049;DHT22;513;51.444;7.196;2023-05-10T02:12:01;12.60;99.90
1049;DHT22;513;51.444;7.196;2023-05-10T02:14:32;12.70;99.90
1049;DHT22;513;51.444;7.196;2023-05-10T02:17:02;12.70;99.90
1049;DHT22;513;51.444;7.196;2023-05-10T02:19:30;12.50;99.90
1049;DHT22;513;51.444;7.196;2023-05-10T02:21:59;12.60;99.90
1049;DHT22;513;51.444;7.196;2023-05-10T02:24:27;12.70;99.90
1049;DHT22;513;51.444;7.196;2023-05-10T02:26:55;12.70;99.90
1049;DHT22;513;51.444;7.196;2023-05-10T02:29:23;12.70;99.90
1049;DHT22;513;51.444;7.196;2023-05-10T02:31:51;12.60;99.90
1049;DHT22;513;51.444;7.196;2023-05-10T02:34:19;12.50;99.90
1049;DHT22;513;51.444;7.196;2023-05-10T02:36:47;12.60;99.90
1049;DHT22;513;51.444;7.196;2023-05-10T02:39:15;12.60;99.90
1049;DHT22;513;51.444;7.196;2023-05-10T02:41:45;12.50;99.90
1049;DHT22;513;51.444;7.196;2023-05-10T02:44:14;12.60;99.90
1049;DHT22;513;51.444;7.196;2023-05-10T02:46:41;12.70;99.90
1049;DHT22;513;51.444;7.196;2023-05-10T02:49:09;12.70;99.90
1049;DHT22;513;51.444;7.196;2023-05-10T02:51:37;12.70;99.90
1049;DHT22;513;51.444;7.196;2023-05-10T02:54:10;12.70;99.90
1049;DHT22;513;51.444;7.196;2023-05-10T02:56:42;12.80;99.90
1049;DHT22;513;51.444;7.196;2023-05-10T02:59:12;12.70;99.90
1049;DHT22;513;51.444;7.196;2023-05-10T03:01:39;12.70;99.90
1049;DHT22;513;51.444;7.196;2023-05-10T03:04:06;12.80;99.90
1049;DHT22;513;51.444;7.196;2023-05-10T03:06:32;12.80;99.90
1049;DHT22;513;51.444;7.196;2023-05-10T03:08:59;12.90;99.90
1049;DHT22;513;51.444;7.196;2023-05-10T03:11:45;12.80;99.90
1049;DHT22;513;51.444;7.196;2023-05-10T03:14:29;12.80;99.90
1049;DHT22;513;51.444;7.196;2023-05-10T03:17:06;12.90;99.90
1049;DHT22;513;51.444;7.196;2023-05-10T03:19:43;12.90;99.90
1049;DHT22;513;51.444;7.196;2023-05-10T03:22:13;12.90;99.90
1049;DHT22;513;51.444;7.196;2023-05-10T03:24:43;12.90;99.90
1049;DHT22;513;51.444;7.196;2023-05-10T03:27:14;13.00;99.90
1049;DHT22;513;51.444;7.196;2023-05-10T03:29:42;12.90;99.90
1049;DHT22;513;51.444;7.196;2023-05-10T03:32:09;12.90;99.90
1049;DHT22;513;51.444;7.196;2023-05-10T03:34:41;12.90;99.90
1049;DHT22;513;51.444;7.196;2023-05-10T03:37:08;12.90;99.90
1049;DHT22;513;51.444;7.196;2023-05-10T03:39:35;12.90;99.90
1049;DHT22;513;51.444;7.196;2023-05-10T03:42:02;12.90;99.90
1049;DHT22;513;51.444;7.196;2023-05-10T03:44:30;12.90;99.90
1049;DHT22;513;51.444;7.196;2023-05-10T03:46:58;12.90;99.90
1049;DHT22;513;51.444;7.196;2023-05-10T03:49:25;12.90;99.90
1049;DHT22;513;51.444;7.196;2023-05-10T03:51:51;12.90;99.90
1049;DHT22;513;51.444;7.196;2023-05-10T03:54:18;12.90;99.90
1049;DHT22;513;51.444;7.196;2023-05-10T03:56:45;12.80;99.90
1049;DHT22;513;51.444;7.196;2023-05-10T03:59:13;12.80;99.90
1049;DHT22;513;51.444;7.196;2023-05-10T04:01:41;12.80;99.90
1049;DHT22;513;51.444;7.196;2023-05-10T04:04:07;12.70;99.90
1049;DHT22;513;51.444;7.196;2023-05-10T04:06:34;12.70;99.90
1049;DHT22;513;51.444;7.196;2023-05-10T04:09:00;12.70;99.90
1049;DHT22;513;51.444;7.196;2023-05-10T04:11:29;12.80;99.90
1049;DHT22;513;51.444;7.196;2023-05-10T04:13:56;12.80;99.90
1049;DHT22;513;51.444;7.196;2023-05-10T04:16:23;12.80;99.90
1049;DHT22;513;51.444;7.196;2023-05-10T04:18:51;12.80;99.90
1049;DHT22;513;51.444;7.196;2023-05-10T04:21:18;12.80;99.90
1049;DHT22;513;51.444;7.196;2023-05-10T04:23:44;12.80;99.90
1049;DHT22;513;51.444;7.196;2023-05-10T04:26:11;12.90;99.90
1049;DHT22;513;51.444;7.196;2023-05-10T04:28:37;12.80;99.90
1049;DHT22;513;51.444;7.196;2023-05-10T04:31:04;12.70;99.90
1049;DHT22;513;51.444;7.196;2023-05-10T04:33:32;12.80;99.90
1049;DHT22;513;51.444;7.196;2023-05-10T04:36:00;12.80;99.90
1049;DHT22;513;51.444;7.196;2023-05-10T04:38:27;12.80;99.90
1049;DHT22;513;51.444;7.196;2023-05-10T04:40:54;12.90;99.90
1049;DHT22;513;51.444;7.196;2023-05-10T04:43:21;12.80;99.90
1049;DHT22;513;51.444;7.196;2023-05-10T04:45:47;12.90;99.90
1049;DHT22;513;51.444;7.196;2023-05-10T04:48:15;12.90;99.90
1049;DHT22;513;51.444;7.196;2023-05-10T04:50:42;12.90;99.90
1049;DHT22;513;51.444;7.196;2023-05-10T04:53:10;12.90;99.90
1049;DHT22;513;51.444;7.196;2023-05-10T04:55:36;12.90;99.90
1049;DHT22;513;51.444;7.196;2023-05-10T04:58:03;12.90;99.90
1049;DHT22;513;51.444;7.196;2023-05-10T05:00:30;12.90;99.90
1049;DHT22;513;51.444;7.196;2023-05-10T05:02:57;12.90;99.90
1049;DHT22;513;51.444;7.196;2023-05-10T05:05:24;12.90;99.90
1049;DHT22;513;51.444;7.196;2023-05-10T05:07:50;12.90;99.90
1049;DHT22;513;51.444;7.196;2023-05-10T05:10:18;12.90;99.90
1049;DHT22;513;51.444;7.196;2023-05-10T05:12:45;13.00;99.90
1049;DHT22;513;51.444;7.196;2023-05-10T05:15:12;13.10;99.90
1049;DHT22;513;51.444;7.196;2023-05-10T05:17:38;13.10;99.90
1049;DHT22;513;51.444;7.196;2023-05-10T05:20:06;13.10;99.90
1049;DHT22;513;51.444;7.196;2023-05-10T05:22:33;13.10;99.90
1049;DHT22;513;51.444;7.196;2023-05-10T05:24:59;13.10;99.90
1049;DHT22;513;51.444;7.196;2023-05-10T05:27:29;13.20;99.90
1049;DHT22;513;51.444;7.196;2023-05-10T05:29:56;13.20;99.90
1049;DHT22;513;51.444;7.196;2023-05-10T05:32:23;13.30;99.90
1049;DHT22;513;51.444;7.196;2023-05-10T05:34:51;13.20;99.90
1049;DHT22;513;51.444;7.196;2023-05-10T05:37:19;13.30;99.90
1049;DHT22;513;51.444;7.196;2023-05-10T05:39:46;13.30;99.90
1049;DHT22;513;51.444;7.196;2023-05-10T05:42:13;13.30;99.90
1049;DHT22;513;51.444;7.196;2023-05-10T05:44:43;13.30;99.90
1049;DHT22;513;51.444;7.196;2023-05-10T05:47:09;13.30;99.90
1049;DHT22;513;51.444;7.196;2023-05-10T05:49:36;13.30;99.90
1049;DHT22;513;51.444;7.196;2023-05-10T05:52:04;13.30;99.90
1049;DHT22;513;51.444;7.196;2023-05-10T05:54:31;13.30;99.90
1049;DHT22;513;51.444;7.196;2023-05-10T05:56:58;13.30;99.90
1049;DHT22;513;51.444;7.196;2023-05-10T05:59:25;13.30;99.90
1049;DHT22;513;51.444;7.196;2023-05-10T06:01:53;13.30;99.90
1049;DHT22;513;51.444;7.196;2023-05-10T06:04:20;13.40;99.90
1049;DHT22;513;51.444;7.196;2023-05-10T06:06:46;13.40;99.90
1049;DHT22;513;51.444;7.196;2023-05-10T06:09:13;13.40;99.90
1049;DHT22;513;51.444;7.196;2023-05-10T06:11:40;13.50;99.90
1049;DHT22;513;51.444;7.196;2023-05-10T06:14:06;13.60;99.90
1049;DHT22;513;51.444;7.196;2023-05-10T06:16:33;13.60;99.90
1049;DHT22;513;51.444;7.196;2023-05-10T06:19:01;13.70;99.90
1049;DHT22;513;51.444;7.196;2023-05-10T06:21:28;13.60;99.90
1049;DHT22;513;51.444;7.196;2023-05-10T06:23:55;13.60;99.90
1049;DHT22;513;51.444;7.196;2023-05-10T06:26:22;13.70;99.90
1049;DHT22;513;51.444;7.196;2023-05-10T06:28:48;13.70;99.90
1049;DHT22;513;51.444;7.196;2023-05-10T06:31:15;13.70;99.90
1049;DHT22;513;51.444;7.196;2023-05-10T06:33:41;13.80;99.90
1049;DHT22;513;51.444;7.196;2023-05-10T06:36:09;13.90;99.90
1049;DHT22;513;51.444;7.196;2023-05-10T06:38:36;13.80;99.90
1049;DHT22;513;51.444;7.196;2023-05-10T06:41:03;13.70;99.90
1049;DHT22;513;51.444;7.196;2023-05-10T06:43:29;13.70;99.90
1049;DHT22;513;51.444;7.196;2023-05-10T06:45:56;13.70;99.90
1049;DHT22;513;51.444;7.196;2023-05-10T06:48:23;13.70;99.90
1049;DHT22;513;51.444;7.196;2023-05-10T06:50:49;13.80;99.90
1049;DHT22;513;51.444;7.196;2023-05-10T06:53:17;13.80;99.90
1049;DHT22;513;51.444;7.196;2023-05-10T06:55:44;13.80;99.90
1049;DHT22;513;51.444;7.196;2023-05-10T06:58:11;14.00;99.90
1049;DHT22;513;51.444;7.196;2023-05-10T07:00:37;14.00;99.90
1049;DHT22;513;51.444;7.196;2023-05-10T07:03:05;14.10;99.90
1049;DHT22;513;51.444;7.196;2023-05-10T07:05:32;14.20;99.90
1049;DHT22;513;51.444;7.196;2023-05-10T07:07:59;14.40;99.90
1049;DHT22;513;51.444;7.196;2023-05-10T07:10:27;14.40;99.90
1049;DHT22;513;51.444;7.196;2023-05-10T07:12:54;14.50;99.90
1049;DHT22;513;51.444;7.196;2023-05-10T07:15:21;14.50;99.90
1049;DHT22;513;51.444;7.196;2023-05-10T07:17:48;14.60;99.90
1049;DHT22;513;51.444;7.196;2023-05-10T07:20:14;14.70;99.90
1049;DHT22;513;51.444;7.196;2023-05-10T07:22:41;14.70;99.90
1049;DHT22;513;51.444;7.196;2023-05-10T07:25:08;14.60;99.90
1049;DHT22;513;51.444;7.196;2023-05-10T07:27:36;14.50;99.90
1049;DHT22;513;51.444;7.196;2023-05-10T07:30:03;14.60;99.90
1049;DHT22;513;51.444;7.196;2023-05-10T07:32:30;14.60;99.90
1049;DHT22;513;51.444;7.196;2023-05-10T07:34:57;14.70;99.90
1049;DHT22;513;51.444;7.196;2023-05-10T07:37:23;14.60;99.90
1049;DHT22;513;51.444;7.196;2023-05-10T07:39:50;14.60;99.90
1049;DHT22;513;51.444;7.196;2023-05-10T07:42:17;14.60;99.90
1049;DHT22;513;51.444;7.196;2023-05-10T07:44:45;14.60;99.90
1049;DHT22;513;51.444;7.196;2023-05-10T07:47:12;14.70;99.90
1049;DHT22;513;51.444;7.196;2023-05-10T07:49:39;14.80;99.90
1049;DHT22;513;51.444;7.196;2023-05-10T07:52:06;14.70;99.90
1049;DHT22;513;51.444;7.196;2023-05-10T07:54:32;14.70;99.90
1049;DHT22;513;51.444;7.196;2023-05-10T07:57:00;14.70;99.90
1049;DHT22;513;51.444;7.196;2023-05-10T07:59:26;14.80;99.90
1049;DHT22;513;51.444;7.196;2023-05-10T08:01:54;14.80;99.90
1049;DHT22;513;51.444;7.196;2023-05-10T08:04:21;14.90;99.90
1049;DHT22;513;51.444;7.196;2023-05-10T08:06:48;15.00;99.90
1049;DHT22;513;51.444;7.196;2023-05-10T08:09:14;14.90;99.90
1049;DHT22;513;51.444;7.196;2023-05-10T08:11:43;15.00;99.90
1049;DHT22;513;51.444;7.196;2023-05-10T08:14:09;15.00;99.90
1049;DHT22;513;51.444;7.196;2023-05-10T08:16:36;14.70;99.90
1049;DHT22;513;51.444;7.196;2023-05-10T08:19:04;14.80;99.90
1049;DHT22;513;51.444;7.196;2023-05-10T08:21:30;14.90;99.90
1049;DHT22;513;51.444;7.196;2023-05-10T08:23:58;15.00;99.90
1049;DHT22;513;51.444;7.196;2023-05-10T08:26:25;14.80;99.90
1049;DHT22;513;51.444;7.196;2023-05-10T08:28:51;14.80;99.90
1049;DHT22;513;51.444;7.196;2023-05-10T08:31:18;14.70;99.90
1049;DHT22;513;51.444;7.196;2023-05-10T08:33:45;14.70;99.90
1049;DHT22;513;51.444;7.196;2023-05-10T08:36:13;14.60;99.90
1049;DHT22;513;51.444;7.196;2023-05-10T08:38:45;14.70;99.90
1049;DHT22;513;51.444;7.196;2023-05-10T08:41:11;14.60;99.90
1049;DHT22;513;51.444;7.196;2023-05-10T08:43:39;14.70;99.90
1049;DHT22;513;51.444;7.196;2023-05-10T08:46:07;14.60;99.90
1049;DHT22;513;51.444;7.196;2023-05-10T08:48:36;14.60;99.90
1049;DHT22;513;51.444;7.196;2023-05-10T08:51:03;14.70;99.90
1049;DHT22;513;51.444;7.196;2023-05-10T08:53:33;15.00;99.90
1049;DHT22;513;51.444;7.196;2023-05-10T08:56:01;15.20;99.90
1049;DHT22;513;51.444;7.196;2023-05-10T08:58:28;15.40;99.90
1049;DHT22;513;51.444;7.196;2023-05-10T09:00:56;15.60;99.90
1049;DHT22;513;51.444;7.196;2023-05-10T09:03:23;15.70;99.90
1049;DHT22;513;51.444;7.196;2023-05-10T09:05:50;15.60;99.90
1049;DHT22;513;51.444;7.196;2023-05-10T09:08:17;15.50;99.90
1049;DHT22;513;51.444;7.196;2023-05-10T09:10:46;15.40;99.90
1049;DHT22;513;51.444;7.196;2023-05-10T09:13:14;15.40;99.90
1049;DHT22;513;51.444;7.196;2023-05-10T09:15:42;15.40;99.90
1049;DHT22;513;51.444;7.196;2023-05-10T09:18:09;15.50;99.90
1049;DHT22;513;51.444;7.196;2023-05-10T09:20:36;15.50;99.90
1049;DHT22;513;51.444;7.196;2023-05-10T09:23:03;15.70;99.90
1049;DHT22;513;51.444;7.196;2023-05-10T09:25:30;15.80;99.90
1049;DHT22;513;51.444;7.196;2023-05-10T09:28:00;15.70;99.90
1049;DHT22;513;51.444;7.196;2023-05-10T09:30:28;15.70;99.90
1049;DHT22;513;51.444;7.196;2023-05-10T09:32:55;15.60;99.90
1049;DHT22;513;51.444;7.196;2023-05-10T09:35:23;15.60;99.90
1049;DHT22;513;51.444;7.196;2023-05-10T09:37:52;15.70;99.90
1049;DHT22;513;51.444;7.196;2023-05-10T09:40:21;15.70;99.90
1049;DHT22;513;51.444;7.196;2023-05-10T09:42:52;15.70;99.90
1049;DHT22;513;51.444;7.196;2023-05-10T09:45:20;15.80;99.90
1049;DHT22;513;51.444;7.196;2023-05-10T09:47:47;15.70;99.90
1049;DHT22;513;51.444;7.196;2023-05-10T09:50:14;15.50;99.90
1049;DHT22;513;51.444;7.196;2023-05-10T09:52:48;15.40;99.90
1049;DHT22;513;51.444;7.196;2023-05-10T09:55:16;15.50;99.90
1049;DHT22;513;51.444;7.196;2023-05-10T09:57:44;15.60;99.90
1049;DHT22;513;51.444;7.196;2023-05-10T10:00:17;15.60;99.90
1049;DHT22;513;51.444;7.196;2023-05-10T10:02:47;15.70;99.90
1049;DHT22;513;51.444;7.196;2023-05-10T10:05:14;15.80;99.90
1049;DHT22;513;51.444;7.196;2023-05-10T10:07:41;15.90;99.90
1049;DHT22;513;51.444;7.196;2023-05-10T10:10:09;16.00;99.90
1049;DHT22;513;51.444;7.196;2023-05-10T10:12:38;16.10;99.90
1049;DHT22;513;51.444;7.196;2023-05-10T10:15:07;16.00;99.90
1049;DHT22;513;51.444;7.196;2023-05-10T10:17:36;15.80;99.90
1049;DHT22;513;51.444;7.196;2023-05-10T10:20:05;15.70;99.90
1049;DHT22;513;51.444;7.196;2023-05-10T10:22:32;15.80;99.90
1049;DHT22;513;51.444;7.196;2023-05-10T10:24:59;15.70;99.90
1049;DHT22;513;51.444;7.196;2023-05-10T10:27:35;15.80;99.90
1049;DHT22;513;51.444;7.196;2023-05-10T10:30:10;15.80;99.90
1049;DHT22;513;51.444;7.196;2023-05-10T10:33:01;15.90;99.90
1049;DHT22;513;51.444;7.196;2023-05-10T10:35:32;16.00;99.90
1049;DHT22;513;51.444;7.196;2023-05-10T10:38:00;16.10;99.90
1049;DHT22;513;51.444;7.196;2023-05-10T10:40:28;16.00;99.90
1049;DHT22;513;51.444;7.196;2023-05-10T10:42:56;16.00;99.90
1049;DHT22;513;51.444;7.196;2023-05-10T10:45:24;16.20;99.90
1049;DHT22;513;51.444;7.196;2023-05-10T10:50:44;16.10;99.90
1049;DHT22;513;51.444;7.196;2023-05-10T10:53:12;16.20;99.90
1049;DHT22;513;51.444;7.196;2023-05-10T10:55:46;16.20;99.90
1049;DHT22;513;51.444;7.196;2023-05-10T10:58:29;16.20;99.90
1049;DHT22;513;51.444;7.196;2023-05-10T11:01:10;16.00;99.90
1049;DHT22;513;51.444;7.196;2023-05-10T11:03:37;15.90;99.90
1049;DHT22;513;51.444;7.196;2023-05-10T11:06:05;15.90;99.90
1049;DHT22;513;51.444;7.196;2023-05-10T11:08:34;15.80;99.90
1049;DHT22;513;51.444;7.196;2023-05-10T11:11:05;15.70;99.90
1049;DHT22;513;51.444;7.196;2023-05-10T11:13:39;16.00;99.90
1049;DHT22;513;51.444;7.196;2023-05-10T11:16:11;16.30;99.90
1049;DHT22;513;51.444;7.196;2023-05-10T11:18:38;16.40;99.90
1049;DHT22;513;51.444;7.196;2023-05-10T11:21:09;16.50;99.90
1049;DHT22;513;51.444;7.196;2023-05-10T11:23:48;16.60;99.90
1049;DHT22;513;51.444;7.196;2023-05-10T11:26:16;16.20;99.90
1049;DHT22;513;51.444;7.196;2023-05-10T11:28:43;15.90;99.90
1049;DHT22;513;51.444;7.196;2023-05-10T11:31:10;15.70;99.90
1049;DHT22;513;51.444;7.196;2023-05-10T11:33:42;15.50;99.90
1049;DHT22;513;51.444;7.196;2023-05-10T11:36:12;15.50;99.90
1049;DHT22;513;51.444;7.196;2023-05-10T11:38:38;15.70;99.90
1049;DHT22;513;51.444;7.196;2023-05-10T11:41:05;15.70;99.90
1049;DHT22;513;51.444;7.196;2023-05-10T11:43:34;15.70;99.90
1049;DHT22;513;51.444;7.196;2023-05-10T11:46:02;15.90;99.90
1049;DHT22;513;51.444;7.196;2023-05-10T11:48:29;16.00;99.90
1049;DHT22;513;51.444;7.196;2023-05-10T11:50:56;15.90;99.90
1049;DHT22;513;51.444;7.196;2023-05-10T11:53:25;15.80;99.90
1049;DHT22;513;51.444;7.196;2023-05-10T11:55:52;15.80;99.90
1049;DHT22;513;51.444;7.196;2023-05-10T11:58:19;16.00;99.90
1049;DHT22;513;51.444;7.196;2023-05-10T12:00:46;16.20;99.90
1049;DHT22;513;51.444;7.196;2023-05-10T12:03:13;16.20;99.90
1049;DHT22;513;51.444;7.196;2023-05-10T12:05:41;16.00;99.90
1049;DHT22;513;51.444;7.196;2023-05-10T12:08:11;15.90;99.90
1049;DHT22;513;51.444;7.196;2023-05-10T12:10:39;15.60;99.90
1049;DHT22;513;51.444;7.196;2023-05-10T12:13:10;15.40;99.90
1049;DHT22;513;51.444;7.196;2023-05-10T12:15:38;15.20;99.90
1049;DHT22;513;51.444;7.196;2023-05-10T12:18:04;15.20;99.90
1049;DHT22;513;51.444;7.196;2023-05-10T12:20:31;15.30;99.90
1049;DHT22;513;51.444;7.196;2023-05-10T12:22:58;15.40;99.90
1049;DHT22;513;51.444;7.196;2023-05-10T12:25:30;15.70;99.90
1049;DHT22;513;51.444;7.196;2023-05-10T12:28:02;16.00;99.90
1049;DHT22;513;51.444;7.196;2023-05-10T12:30:30;16.10;99.90
1049;DHT22;513;51.444;7.196;2023-05-10T12:33:00;16.40;99.90
1049;DHT22;513;51.444;7.196;2023-05-10T12:35:30;16.70;99.90
1049;DHT22;513;51.444;7.196;2023-05-10T12:37:57;16.80;99.90
1049;DHT22;513;51.444;7.196;2023-05-10T12:40:24;16.90;99.90
1049;DHT22;513;51.444;7.196;2023-05-10T12:42:51;16.80;99.90
1049;DHT22;513;51.444;7.196;2023-05-10T12:45:19;16.90;99.90
1049;DHT22;513;51.444;7.196;2023-05-10T12:47:46;16.90;99.90
1049;DHT22;513;51.444;7.196;2023-05-10T12:50:13;17.00;99.90
1049;DHT22;513;51.444;7.196;2023-05-10T12:52:39;17.10;99.90
1049;DHT22;513;51.444;7.196;2023-05-10T12:55:06;17.10;99.90
1049;DHT22;513;51.444;7.196;2023-05-10T12:57:33;17.20;99.90
1049;DHT22;513;51.444;7.196;2023-05-10T13:00:00;17.30;99.90
1049;DHT22;513;51.444;7.196;2023-05-10T13:02:28;17.30;99.90
1049;DHT22;513;51.444;7.196;2023-05-10T13:04:54;17.40;96.80
1049;DHT22;513;51.444;7.196;2023-05-10T13:07:21;17.20;99.90
1049;DHT22;513;51.444;7.196;2023-05-10T13:09:48;17.20;99.90
1049;DHT22;513;51.444;7.196;2023-05-10T13:12:15;17.00;99.90
1049;DHT22;513;51.444;7.196;2023-05-10T13:14:41;16.80;97.20
1049;DHT22;513;51.444;7.196;2023-05-10T13:17:08;16.50;99.90
1049;DHT22;513;51.444;7.196;2023-05-10T13:19:36;16.60;99.90
1049;DHT22;513;51.444;7.196;2023-05-10T13:22:03;16.70;77.30
1049;DHT22;513;51.444;7.196;2023-05-10T13:24:29;16.80;69.90
1049;DHT22;513;51.444;7.196;2023-05-10T13:26:56;16.80;50.60
1049;DHT22;513;51.444;7.196;2023-05-10T13:29:22;16.90;96.10
1049;DHT22;513;51.444;7.196;2023-05-10T13:31:49;17.00;57.20
1049;DHT22;513;51.444;7.196;2023-05-10T13:34:16;17.20;98.20
1049;DHT22;513;51.444;7.196;2023-05-10T13:36:47;17.40;99.90
1049;DHT22;513;51.444;7.196;2023-05-10T13:39:14;17.50;23.80
1049;DHT22;513;51.444;7.196;2023-05-10T13:41:41;17.60;1.00
1049;DHT22;513;51.444;7.196;2023-05-10T13:44:07;17.60;1.00
1049;DHT22;513;51.444;7.196;2023-05-10T13:46:34;17.70;1.00
1049;DHT22;513;51.444;7.196;2023-05-10T13:49:01;17.70;99.90
1049;DHT22;513;51.444;7.196;2023-05-10T13:51:28;17.70;1.00
1049;DHT22;513;51.444;7.196;2023-05-10T13:53:55;17.90;1.00
1049;DHT22;513;51.444;7.196;2023-05-10T13:56:22;18.10;99.90
1049;DHT22;513;51.444;7.196;2023-05-10T13:58:49;18.20;99.90
1049;DHT22;513;51.444;7.196;2023-05-10T14:01:16;18.10;99.90
1049;DHT22;513;51.444;7.196;2023-05-10T14:03:43;17.80;99.90
1049;DHT22;513;51.444;7.196;2023-05-10T14:06:09;17.80;99.90
1049;DHT22;513;51.444;7.196;2023-05-10T14:08:36;17.90;51.10
1049;DHT22;513;51.444;7.196;2023-05-10T14:11:04;18.10;1.00
1049;DHT22;513;51.444;7.196;2023-05-10T14:13:31;18.20;1.00
1049;DHT22;513;51.444;7.196;2023-05-10T14:15:58;18.20;99.90
1049;DHT22;513;51.444;7.196;2023-05-10T14:18:26;18.20;99.90
1049;DHT22;513;51.444;7.196;2023-05-10T14:20:52;18.20;1.00
1049;DHT22;513;51.444;7.196;2023-05-10T14:23:19;18.20;1.00
1049;DHT22;513;51.444;7.196;2023-05-10T14:25:49;18.10;99.90
1049;DHT22;513;51.444;7.196;2023-05-10T14:28:17;18.00;78.40
1049;DHT22;513;51.444;7.196;2023-05-10T14:30:44;17.80;99.90
1049;DHT22;513;51.444;7.196;2023-05-10T14:33:11;17.60;1.00
1049;DHT22;513;51.444;7.196;2023-05-10T14:35:38;17.60;1.00
1049;DHT22;513;51.444;7.196;2023-05-10T14:38:05;17.60;1.00
1049;DHT22;513;51.444;7.196;2023-05-10T14:40:32;17.50;1.00
1049;DHT22;513;51.444;7.196;2023-05-10T14:42:58;17.60;99.90
1049;DHT22;513;51.444;7.196;2023-05-10T14:45:26;17.60;99.90
1049;DHT22;513;51.444;7.196;2023-05-10T14:47:53;17.70;1.00
1049;DHT22;513;51.444;7.196;2023-05-10T14:50:20;17.80;99.90
1049;DHT22;513;51.444;7.196;2023-05-10T14:52:46;18.10;99.90
1049;DHT22;513;51.444;7.196;2023-05-10T14:55:13;18.30;1.00
1049;DHT22;513;51.444;7.196;2023-05-10T14:57:40;18.40;99.90
1049;DHT22;513;51.444;7.196;2023-05-10T15:00:07;18.30;99.90
1049;DHT22;513;51.444;7.196;2023-05-10T15:02:35;18.10;99.90
1049;DHT22;513;51.444;7.196;2023-05-10T15:05:02;17.90;99.90
1049;DHT22;513;51.444;7.196;2023-05-10T15:07:29;17.60;99.90
1049;DHT22;513;51.444;7.196;2023-05-10T15:09:56;17.60;1.00
1049;DHT22;513;51.444;7.196;2023-05-10T15:12:23;17.50;1.00
1049;DHT22;513;51.444;7.196;2023-05-10T15:14:49;17.40;99.90
1049;DHT22;513;51.444;7.196;2023-05-10T15:17:16;17.30;99.90
1049;DHT22;513;51.444;7.196;2023-05-10T15:19:44;17.10;1.00
1049;DHT22;513;51.444;7.196;2023-05-10T15:22:11;17.10;1.00
1049;DHT22;513;51.444;7.196;2023-05-10T15:24:37;17.00;1.00
1049;DHT22;513;51.444;7.196;2023-05-10T15:27:04;17.00;99.90
1049;DHT22;513;51.444;7.196;2023-05-10T15:29:31;16.90;99.90
1049;DHT22;513;51.444;7.196;2023-05-10T15:31:57;16.90;99.90
1049;DHT22;513;51.444;7.196;2023-05-10T15:34:24;16.90;99.90
1049;DHT22;513;51.444;7.196;2023-05-10T15:36:52;16.80;99.90
1049;DHT22;513;51.444;7.196;2023-05-10T15:39:19;16.80;99.90
1049;DHT22;513;51.444;7.196;2023-05-10T15:41:45;16.90;1.00
1049;DHT22;513;51.444;7.196;2023-05-10T15:44:12;17.10;99.90
1049;DHT22;513;51.444;7.196;2023-05-10T15:46:39;17.40;99.90
1049;DHT22;513;51.444;7.196;2023-05-10T15:49:06;17.70;99.90
1049;DHT22;513;51.444;7.196;2023-05-10T15:51:32;17.90;1.00
1049;DHT22;513;51.444;7.196;2023-05-10T15:54:00;18.00;1.00
1049;DHT22;513;51.444;7.196;2023-05-10T15:56:27;18.10;99.90
1049;DHT22;513;51.444;7.196;2023-05-10T15:58:54;17.90;1.00
1049;DHT22;513;51.444;7.196;2023-05-10T16:01:21;17.90;26.40
1049;DHT22;513;51.444;7.196;2023-05-10T16:03:48;17.90;1.00
1049;DHT22;513;51.444;7.196;2023-05-10T16:06:14;17.70;1.00
1049;DHT22;513;51.444;7.196;2023-05-10T16:08:41;17.60;1.00
1049;DHT22;513;51.444;7.196;2023-05-10T16:11:09;17.40;1.00
1049;DHT22;513;51.444;7.196;2023-05-10T16:13:36;17.40;1.00
1049;DHT22;513;51.444;7.196;2023-05-10T16:16:02;17.30;99.90
1049;DHT22;513;51.444;7.196;2023-05-10T16:18:29;17.30;1.00
1049;DHT22;513;51.444;7.196;2023-05-10T16:20:58;17.20;99.90
1049;DHT22;513;51.444;7.196;2023-05-10T16:23:25;17.20;99.90
1049;DHT22;513;51.444;7.196;2023-05-10T16:25:52;17.30;99.90
1049;DHT22;513;51.444;7.196;2023-05-10T16:28:20;17.30;1.00